sensor_id;sensor_type;location;lat;lon;timestamp;pressure;altitude;pressure_sealevel;temperature;humidity
69667;BME280;66534;52.370;4.832;2023-01-10T00:00:13;101098.41;;;7.45;100.00
69667;BME280;66534;52.370;4.832;2023-01-10T00:00:44;101100.06;;;7.48;100.00
69667;BME280;66534;52.370;4.832;2023-01-10T00:01:14;101102.66;;;7.48;100.00
69667;BME280;66534;52.370;4.832;2023-01-10T00:01:44;101099.91;;;7.54;100.00
69667;BME280;66534;52.370;4.832;2023-01-10T00:02:15;101098.78;;;7.63;100.00
69667;BME280;66534;52.370;4.832;2023-01-10T00:02:45;101100.47;;;7.65;100.00
69667;BME280;66534;52.370;4.832;2023-01-10T00:03:16;101103.09;;;7.64;100.00
69667;BME280;66534;52.370;4.832;2023-01-10T00:03:46;101103.22;;;7.61;100.00
69667;BME280;66534;52.370;4.832;2023-01-10T00:04:17;101098.94;;;7.58;100.00
69667;BME280;66534;52.370;4.832;2023-01-10T00:04:47;101097.25;;;7.56;100.00
69667;BME280;66534;52.370;4.832;2023-01-10T00:05:17;101093.97;;;7.49;100.00
69667;BME280;66534;52.370;4.832;2023-01-10T00:05:48;101102.59;;;7.51;100.00
69667;BME280;66534;52.370;4.832;2023-01-10T00:06:19;101103.50;;;7.50;100.00
69667;BME280;66534;52.370;4.832;2023-01-10T00:06:49;101107.78;;;7.53;100.00
69667;BME280;66534;52.370;4.832;2023-01-10T00:07:20;101100.06;;;7.48;100.00
69667;BME280;66534;52.370;4.832;2023-01-10T00:07:51;101108.03;;;7.43;100.00
69667;BME280;66534;52.370;4.832;2023-01-10T00:08:21;101100.25;;;7.42;100.00
69667;BME280;66534;52.370;4.832;2023-01-10T00:08:51;101107.09;;;7.46;100.00
69667;BME280;66534;52.370;4.832;2023-01-10T00:09:22;101108.06;;;7.42;100.00
69667;BME280;66534;52.370;4.832;2023-01-10T00:09:52;101108.84;;;7.45;100.00
69667;BME280;66534;52.370;4.832;2023-01-10T00:10:23;101114.16;;;7.42;100.00
69667;BME280;66534;52.370;4.832;2023-01-10T00:10:54;101115.06;;;7.41;100.00
69667;BME280;66534;52.370;4.832;2023-01-10T00:11:24;101112.44;;;7.41;100.00
69667;BME280;66534;52.370;4.832;2023-01-10T00:12:33;101120.28;;;7.41;100.00
69667;BME280;66534;52.370;4.832;2023-01-10T00:13:22;101114.06;;;7.45;100.00
69667;BME280;66534;52.370;4.832;2023-01-10T00:13:53;101119.28;;;7.45;100.00
69667;BME280;66534;52.370;4.832;2023-01-10T00:14:27;101116.63;;;7.47;100.00
69667;BME280;66534;52.370;4.832;2023-01-10T00:14:58;101116.47;;;7.53;100.00
69667;BME280;66534;52.370;4.832;2023-01-10T00:15:31;101117.47;;;7.47;100.00
69667;BME280;66534;52.370;4.832;2023-01-10T00:16:06;101115.78;;;7.46;100.00
69667;BME280;66534;52.370;4.832;2023-01-10T00:16:38;101116.56;;;7.50;100.00
69667;BME280;66534;52.370;4.832;2023-01-10T00:17:08;101127.00;;;7.50;100.00
69667;BME280;66534;52.370;4.832;2023-01-10T00:17:39;101132.22;;;7.50;100.00
69667;BME280;66534;52.370;4.832;2023-01-10T00:18:09;101119.28;;;7.45;100.00
69667;BME280;66534;52.370;4.832;2023-01-10T00:18:40;101128.81;;;7.46;100.00
69667;BME280;66534;52.370;4.832;2023-01-10T00:19:10;101124.44;;;7.48;100.00
69667;BME280;66534;52.370;4.832;2023-01-10T00:19:40;101125.94;;;7.57;100.00
69667;BME280;66534;52.370;4.832;2023-01-10T00:20:11;101126.81;;;7.56;100.00
69667;BME280;66534;52.370;4.832;2023-01-10T00:20:41;101120.78;;;7.54;100.00
69667;BME280;66534;52.370;4.832;2023-01-10T00:22:08;101131.63;;;7.40;100.00
69667;BME280;66534;52.370;4.832;2023-01-10T00:22:39;101135.06;;;7.41;100.00
69667;BME280;66534;52.370;4.832;2023-01-10T00:23:09;101128.91;;;7.43;100.00
69667;BME280;66534;52.370;4.832;2023-01-10T00:23:40;101133.31;;;7.41;100.00
69667;BME280;66534;52.370;4.832;2023-01-10T00:24:14;101127.06;;;7.47;100.00
69667;BME280;66534;52.370;4.832;2023-01-10T00:24:48;101140.97;;;7.47;100.00
69667;BME280;66534;52.370;4.832;2023-01-10T00:25:18;101135.84;;;7.44;100.00
69667;BME280;66534;52.370;4.832;2023-01-10T00:25:50;101132.34;;;7.45;100.00
69667;BME280;66534;52.370;4.832;2023-01-10T00:26:20;101135.94;;;7.41;100.00
69667;BME280;66534;52.370;4.832;2023-01-10T00:26:50;101133.19;;;7.46;100.00
69667;BME280;66534;52.370;4.832;2023-01-10T00:27:21;101137.25;;;7.56;100.00
69667;BME280;66534;52.370;4.832;2023-01-10T00:27:52;101140.63;;;7.61;100.00
69667;BME280;66534;52.370;4.832;2023-01-10T00:28:42;101145.72;;;7.66;100.00
69667;BME280;66534;52.370;4.832;2023-01-10T00:29:12;101141.47;;;7.62;100.00
69667;BME280;66534;52.370;4.832;2023-01-10T00:29:43;101140.38;;;7.69;100.00
69667;BME280;66534;52.370;4.832;2023-01-10T00:30:13;101140.44;;;7.67;100.00
69667;BME280;66534;52.370;4.832;2023-01-10T00:30:47;101147.41;;;7.67;100.00
69667;BME280;66534;52.370;4.832;2023-01-10T00:31:29;101142.31;;;7.62;100.00
69667;BME280;66534;52.370;4.832;2023-01-10T00:32:00;101155.31;;;7.65;100.00
69667;BME280;66534;52.370;4.832;2023-01-10T00:32:31;101150.09;;;7.64;100.00
69667;BME280;66534;52.370;4.832;2023-01-10T00:33:01;101150.97;;;7.64;100.00
69667;BME280;66534;52.370;4.832;2023-01-10T00:33:33;101152.03;;;7.57;100.00
69667;BME280;66534;52.370;4.832;2023-01-10T00:34:04;101163.34;;;7.56;100.00
69667;BME280;66534;52.370;4.832;2023-01-10T00:34:36;101154.88;;;7.48;100.00
69667;BME280;66534;52.370;4.832;2023-01-10T00:35:07;101164.50;;;7.46;100.00
69667;BME280;66534;52.370;4.832;2023-01-10T00:35:38;101165.31;;;7.48;100.00
69667;BME280;66534;52.370;4.832;2023-01-10T00:36:08;101167.19;;;7.44;100.00
69667;BME280;66534;52.370;4.832;2023-01-10T00:36:39;101162.84;;;7.43;100.00
69667;BME280;66534;52.370;4.832;2023-01-10T00:37:11;101165.53;;;7.40;100.00
69667;BME280;66534;52.370;4.832;2023-01-10T00:37:41;101169.06;;;7.38;100.00
69667;BME280;66534;52.370;4.832;2023-01-10T00:38:12;101169.31;;;7.29;100.00
69667;BME280;66534;52.370;4.832;2023-01-10T00:38:42;101174.72;;;7.21;100.00
69667;BME280;66534;52.370;4.832;2023-01-10T00:39:13;101176.44;;;7.22;100.00
69667;BME280;66534;52.370;4.832;2023-01-10T00:39:45;101170.41;;;7.20;100.00
69667;BME280;66534;52.370;4.832;2023-01-10T00:40:15;101171.22;;;7.22;100.00
69667;BME280;66534;52.370;4.832;2023-01-10T00:40:45;101164.47;;;7.15;100.00
69667;BME280;66534;52.370;4.832;2023-01-10T00:41:16;101169.56;;;7.19;100.00
69667;BME280;66534;52.370;4.832;2023-01-10T00:42:05;101175.66;;;7.18;100.00
69667;BME280;66534;52.370;4.832;2023-01-10T00:42:53;101174.97;;;7.12;100.00
69667;BME280;66534;52.370;4.832;2023-01-10T00:43:43;101178.25;;;7.18;100.00
69667;BME280;66534;52.370;4.832;2023-01-10T00:44:28;101184.25;;;7.22;100.00
69667;BME280;66534;52.370;4.832;2023-01-10T00:44:59;101180.06;;;7.16;100.00
69667;BME280;66534;52.370;4.832;2023-01-10T00:45:29;101177.53;;;7.13;100.00
69667;BME280;66534;52.370;4.832;2023-01-10T00:45:59;101180.44;;;7.01;100.00
69667;BME280;66534;52.370;4.832;2023-01-10T00:46:31;101180.59;;;6.95;100.00
69667;BME280;66534;52.370;4.832;2023-01-10T00:47:02;101180.91;;;7.17;100.00
69667;BME280;66534;52.370;4.832;2023-01-10T00:47:32;101180.72;;;7.24;100.00
69667;BME280;66534;52.370;4.832;2023-01-10T00:48:02;101178.72;;;7.36;100.00
69667;BME280;66534;52.370;4.832;2023-01-10T00:48:33;101186.75;;;7.27;100.00
69667;BME280;66534;52.370;4.832;2023-01-10T00:49:03;101181.72;;;7.20;100.00
69667;BME280;66534;52.370;4.832;2023-01-10T00:49:41;101182.38;;;7.27;100.00
69667;BME280;66534;52.370;4.832;2023-01-10T00:50:11;101190.88;;;7.35;100.00
69667;BME280;66534;52.370;4.832;2023-01-10T00:50:42;101182.31;;;7.30;100.00
69667;BME280;66534;52.370;4.832;2023-01-10T00:51:12;101178.63;;;7.39;100.00
69667;BME280;66534;52.370;4.832;2023-01-10T00:51:42;101185.53;;;7.41;100.00
69667;BME280;66534;52.370;4.832;2023-01-10T00:52:13;101177.69;;;7.41;100.00
69667;BME280;66534;52.370;4.832;2023-01-10T00:52:44;101186.31;;;7.43;100.00
69667;BME280;66534;52.370;4.832;2023-01-10T00:53:14;101182.31;;;7.30;100.00
69667;BME280;66534;52.370;4.832;2023-01-10T00:53:45;101182.19;;;7.35;100.00
69667;BME280;66534;52.370;4.832;2023-01-10T00:54:15;101178.81;;;7.31;100.00
69667;BME280;66534;52.370;4.832;2023-01-10T00:54:45;101184.03;;;7.31;100.00
69667;BME280;66534;52.370;4.832;2023-01-10T00:55:16;101188.31;;;7.34;100.00
69667;BME280;66534;52.370;4.832;2023-01-10T00:55:46;101184.97;;;7.29;100.00
69667;BME280;66534;52.370;4.832;2023-01-10T00:56:17;101184.94;;;7.30;100.00
69667;BME280;66534;52.370;4.832;2023-01-10T00:56:47;101177.75;;;7.40;100.00
69667;BME280;66534;52.370;4.832;2023-01-10T00:57:18;101186.69;;;7.30;100.00
69667;BME280;66534;52.370;4.832;2023-01-10T00:57:48;101179.03;;;7.23;100.00
69667;BME280;66534;52.370;4.832;2023-01-10T00:58:19;101186.94;;;7.19;100.00
69667;BME280;66534;52.370;4.832;2023-01-10T00:58:49;101185.03;;;7.26;100.00
69667;BME280;66534;52.370;4.832;2023-01-10T00:59:20;101185.84;;;7.29;100.00
69667;BME280;66534;52.370;4.832;2023-01-10T00:59:50;101191.72;;;7.37;100.00
69667;BME280;66534;52.370;4.832;2023-01-10T01:00:21;101189.97;;;7.38;100.00
69667;BME280;66534;52.370;4.832;2023-01-10T01:00:51;101187.34;;;7.38;100.00
69667;BME280;66534;52.370;4.832;2023-01-10T01:01:22;101189.09;;;7.37;100.00
69667;BME280;66534;52.370;4.832;2023-01-10T01:01:52;101185.56;;;7.40;100.00
69667;BME280;66534;52.370;4.832;2023-01-10T01:02:22;101194.41;;;7.34;100.00
69667;BME280;66534;52.370;4.832;2023-01-10T01:02:53;101189.16;;;7.36;100.00
69667;BME280;66534;52.370;4.832;2023-01-10T01:03:23;101187.41;;;7.35;100.00
69667;BME280;66534;52.370;4.832;2023-01-10T01:03:54;101197.00;;;7.34;100.00
69667;BME280;66534;52.370;4.832;2023-01-10T01:04:24;101184.03;;;7.31;100.00
69667;BME280;66534;52.370;4.832;2023-01-10T01:04:55;101183.28;;;7.28;100.00
69667;BME280;66534;52.370;4.832;2023-01-10T01:05:25;101186.94;;;7.19;100.00
69667;BME280;66534;52.370;4.832;2023-01-10T01:05:56;101194.25;;;7.05;100.00
69667;BME280;66534;52.370;4.832;2023-01-10T01:06:26;101194.09;;;7.12;100.00
69667;BME280;66534;52.370;4.832;2023-01-10T01:06:57;101194.94;;;7.13;100.00
69667;BME280;66534;52.370;4.832;2023-01-10T01:07:27;101188.69;;;7.20;100.00
69667;BME280;66534;52.370;4.832;2023-01-10T01:07:57;101192.09;;;7.22;100.00
69667;BME280;66534;52.370;4.832;2023-01-10T01:08:28;101194.69;;;7.22;100.00
69667;BME280;66534;52.370;4.832;2023-01-10T01:08:58;101191.28;;;7.20;100.00
69667;BME280;66534;52.370;4.832;2023-01-10T01:09:28;101197.31;;;7.22;100.00
69667;BME280;66534;52.370;4.832;2023-01-10T01:09:59;101186.22;;;7.14;100.00
69667;BME280;66534;52.370;4.832;2023-01-10T01:10:48;101193.97;;;7.17;100.00
69667;BME280;66534;52.370;4.832;2023-01-10T01:11:18;101199.97;;;7.19;100.00
69667;BME280;66534;52.370;4.832;2023-01-10T01:11:49;101197.50;;;7.14;100.00
69667;BME280;66534;52.370;4.832;2023-01-10T01:12:19;101195.97;;;7.06;100.00
69667;BME280;66534;52.370;4.832;2023-01-10T01:12:50;101203.00;;;7.02;100.00
69667;BME280;66534;52.370;4.832;2023-01-10T01:13:20;101197.72;;;7.05;100.00
69667;BME280;66534;52.370;4.832;2023-01-10T01:13:51;101205.44;;;7.10;100.00
69667;BME280;66534;52.370;4.832;2023-01-10T01:14:22;101199.31;;;7.12;100.00
69667;BME280;66534;52.370;4.832;2023-01-10T01:14:53;101199.38;;;7.09;100.00
69667;BME280;66534;52.370;4.832;2023-01-10T01:15:24;101199.31;;;7.12;100.00
69667;BME280;66534;52.370;4.832;2023-01-10T01:15:56;101201.78;;;7.17;100.00
69667;BME280;66534;52.370;4.832;2023-01-10T01:16:28;101198.38;;;7.15;100.00
69667;BME280;66534;52.370;4.832;2023-01-10T01:16:58;101200.16;;;7.13;100.00
69667;BME280;66534;52.370;4.832;2023-01-10T01:17:29;101194.13;;;7.11;100.00
69667;BME280;66534;52.370;4.832;2023-01-10T01:17:59;101193.97;;;7.17;100.00
69667;BME280;66534;52.370;4.832;2023-01-10T01:18:30;101199.06;;;7.21;100.00
69667;BME280;66534;52.370;4.832;2023-01-10T01:19:01;101197.13;;;7.30;100.00
69667;BME280;66534;52.370;4.832;2023-01-10T01:19:31;101200.66;;;7.27;100.00
69667;BME280;66534;52.370;4.832;2023-01-10T01:20:02;101191.94;;;7.28;100.00
69667;BME280;66534;52.370;4.832;2023-01-10T01:20:32;101195.56;;;7.22;100.00
69667;BME280;66534;52.370;4.832;2023-01-10T01:21:03;101195.59;;;7.21;100.00
69667;BME280;66534;52.370;4.832;2023-01-10T01:21:34;101193.72;;;7.28;100.00
69667;BME280;66534;52.370;4.832;2023-01-10T01:22:05;101203.75;;;7.43;100.00
69667;BME280;66534;52.370;4.832;2023-01-10T01:22:35;101193.41;;;7.40;100.00
69667;BME280;66534;52.370;4.832;2023-01-10T01:23:06;101203.13;;;7.33;100.00
69667;BME280;66534;52.370;4.832;2023-01-10T01:23:37;101197.72;;;7.39;100.00
69667;BME280;66534;52.370;4.832;2023-01-10T01:24:08;101199.66;;;7.33;100.00
69667;BME280;66534;52.370;4.832;2023-01-10T01:24:40;101206.53;;;7.37;100.00
69667;BME280;66534;52.370;4.832;2023-01-10T01:25:10;101203.78;;;7.41;100.00
69667;BME280;66534;52.370;4.832;2023-01-10T01:25:41;101209.25;;;7.32;100.00
69667;BME280;66534;52.370;4.832;2023-01-10T01:26:11;101200.63;;;7.29;100.00
69667;BME280;66534;52.370;4.832;2023-01-10T01:26:42;101206.78;;;7.26;100.00
69667;BME280;66534;52.370;4.832;2023-01-10T01:27:12;101204.88;;;7.33;100.00
69667;BME280;66534;52.370;4.832;2023-01-10T01:27:43;101206.53;;;7.35;100.00
69667;BME280;66534;52.370;4.832;2023-01-10T01:28:13;101211.75;;;7.35;100.00
69667;BME280;66534;52.370;4.832;2023-01-10T01:28:43;101210.22;;;7.28;100.00
69667;BME280;66534;52.370;4.832;2023-01-10T01:29:14;101216.44;;;7.22;100.00
69667;BME280;66534;52.370;4.832;2023-01-10T01:29:44;101214.72;;;7.21;100.00
69667;BME280;66534;52.370;4.832;2023-01-10T01:30:14;101219.81;;;7.28;100.00
69667;BME280;66534;52.370;4.832;2023-01-10T01:30:45;101218.84;;;7.30;100.00
69667;BME280;66534;52.370;4.832;2023-01-10T01:31:15;101217.06;;;7.32;100.00
69667;BME280;66534;52.370;4.832;2023-01-10T01:31:46;101219.72;;;7.31;100.00
69667;BME280;66534;52.370;4.832;2023-01-10T01:32:16;101207.56;;;7.30;100.00
69667;BME280;66534;52.370;4.832;2023-01-10T01:32:47;101221.53;;;7.27;100.00
69667;BME280;66534;52.370;4.832;2023-01-10T01:33:18;101220.72;;;7.25;100.00
69667;BME280;66534;52.370;4.832;2023-01-10T01:33:49;101226.00;;;7.23;100.00
69667;BME280;66534;52.370;4.832;2023-01-10T01:34:20;101215.56;;;7.23;100.00
69667;BME280;66534;52.370;4.832;2023-01-10T01:34:51;101212.72;;;7.31;100.00
69667;BME280;66534;52.370;4.832;2023-01-10T01:35:21;101218.78;;;7.33;100.00
69667;BME280;66534;52.370;4.832;2023-01-10T01:35:51;101217.88;;;7.34;100.00
69667;BME280;66534;52.370;4.832;2023-01-10T01:36:22;101220.50;;;7.34;100.00
69667;BME280;66534;52.370;4.832;2023-01-10T01:36:52;101226.63;;;7.33;100.00
69667;BME280;66534;52.370;4.832;2023-01-10T01:37:25;101222.97;;;7.40;100.00
69667;BME280;66534;52.370;4.832;2023-01-10T01:37:56;101225.34;;;7.49;100.00
69667;BME280;66534;52.370;4.832;2023-01-10T01:38:26;101225.41;;;7.46;100.00
69667;BME280;66534;52.370;4.832;2023-01-10T01:38:57;101221.28;;;7.38;100.00
69667;BME280;66534;52.370;4.832;2023-01-10T01:39:27;101231.09;;;7.28;100.00
69667;BME280;66534;52.370;4.832;2023-01-10T01:39:58;101231.03;;;7.30;100.00
69667;BME280;66534;52.370;4.832;2023-01-10T01:40:28;101227.41;;;7.35;100.00
69667;BME280;66534;52.370;4.832;2023-01-10T01:40:58;101230.81;;;7.39;100.00
69667;BME280;66534;52.370;4.832;2023-01-10T01:41:29;101222.97;;;7.40;100.00
69667;BME280;66534;52.370;4.832;2023-01-10T01:42:23;101226.31;;;7.44;100.00
69667;BME280;66534;52.370;4.832;2023-01-10T01:42:56;101229.59;;;7.52;100.00
69667;BME280;66534;52.370;4.832;2023-01-10T01:43:27;101216.59;;;7.51;100.00
69667;BME280;66534;52.370;4.832;2023-01-10T01:44:12;101225.16;;;7.57;100.00
69667;BME280;66534;52.370;4.832;2023-01-10T01:45:01;101232.00;;;7.61;100.00
69667;BME280;66534;52.370;4.832;2023-01-10T01:46:01;101231.34;;;7.52;100.00
69667;BME280;66534;52.370;4.832;2023-01-10T01:46:34;101227.75;;;7.57;100.00
69667;BME280;66534;52.370;4.832;2023-01-10T01:47:13;101231.16;;;7.59;100.00
69667;BME280;66534;52.370;4.832;2023-01-10T01:49:08;101231.16;;;7.59;100.00
69667;BME280;66534;52.370;4.832;2023-01-10T01:49:45;101238.03;;;7.63;100.00
69667;BME280;66534;52.370;4.832;2023-01-10T01:51:48;101239.72;;;7.66;100.00
69667;BME280;66534;52.370;4.832;2023-01-10T01:52:25;101239.78;;;7.63;100.00
69667;BME280;66534;52.370;4.832;2023-01-10T01:53:50;101237.25;;;7.60;100.00
69667;BME280;66534;52.370;4.832;2023-01-10T01:54:04;101237.16;;;7.63;100.00
69667;BME280;66534;52.370;4.832;2023-01-10T01:54:40;101243.13;;;7.68;100.00
69667;BME280;66534;52.370;4.832;2023-01-10T01:55:11;101235.34;;;7.66;100.00
69667;BME280;66534;52.370;4.832;2023-01-10T01:55:42;101237.97;;;7.65;100.00
69667;BME280;66534;52.370;4.832;2023-01-10T01:56:18;101241.47;;;7.65;100.00
69667;BME280;66534;52.370;4.832;2023-01-10T01:56:57;101239.78;;;7.63;100.00
69667;BME280;66534;52.370;4.832;2023-01-10T01:57:34;101240.44;;;7.71;100.00
69667;BME280;66534;52.370;4.832;2023-01-10T01:58:08;101238.81;;;7.67;100.00
69667;BME280;66534;52.370;4.832;2023-01-10T01:58:46;101234.50;;;7.66;100.00
69667;BME280;66534;52.370;4.832;2023-01-10T01:59:22;101237.25;;;7.60;100.00
69667;BME280;66534;52.370;4.832;2023-01-10T01:59:57;101237.81;;;7.71;100.00
69667;BME280;66534;52.370;4.832;2023-01-10T02:00:31;101233.53;;;7.68;100.00
69667;BME280;66534;52.370;4.832;2023-01-10T02:01:01;101233.66;;;7.64;100.00
69667;BME280;66534;52.370;4.832;2023-01-10T02:01:32;101236.31;;;7.62;100.00
69667;BME280;66534;52.370;4.832;2023-01-10T02:02:05;101227.00;;;7.52;100.00
69667;BME280;66534;52.370;4.832;2023-01-10T02:02:42;101229.69;;;7.49;100.00
69667;BME280;66534;52.370;4.832;2023-01-10T02:03:18;101232.75;;;7.65;100.00
69667;BME280;66534;52.370;4.832;2023-01-10T02:03:50;101234.50;;;7.64;100.00
69667;BME280;66534;52.370;4.832;2023-01-10T02:04:28;101232.66;;;7.69;100.00
69667;BME280;66534;52.370;4.832;2023-01-10T02:05:05;101235.28;;;7.68;100.00
69667;BME280;66534;52.370;4.832;2023-01-10T02:05:39;101238.75;;;7.70;100.00
69667;BME280;66534;52.370;4.832;2023-01-10T02:06:11;101238.75;;;7.70;100.00
69667;BME280;66534;52.370;4.832;2023-01-10T02:06:44;101238.94;;;7.62;100.00
69667;BME280;66534;52.370;4.832;2023-01-10T02:07:16;101232.13;;;7.57;100.00
69667;BME280;66534;52.370;4.832;2023-01-10T02:07:48;101232.84;;;7.62;100.00
69667;BME280;66534;52.370;4.832;2023-01-10T02:08:23;101236.38;;;7.59;100.00
69667;BME280;66534;52.370;4.832;2023-01-10T02:08:55;101244.16;;;7.62;100.00
69667;BME280;66534;52.370;4.832;2023-01-10T02:09:41;101232.03;;;7.60;100.00
69667;BME280;66534;52.370;4.832;2023-01-10T02:10:17;101241.00;;;7.49;100.00
69667;BME280;66534;52.370;4.832;2023-01-10T02:11:01;101232.19;;;7.54;100.00
69667;BME280;66534;52.370;4.832;2023-01-10T02:11:37;101239.97;;;7.57;100.00
69667;BME280;66534;52.370;4.832;2023-01-10T02:12:08;101234.72;;;7.57;100.00
69667;BME280;66534;52.370;4.832;2023-01-10T02:12:39;101244.41;;;7.52;100.00
69667;BME280;66534;52.370;4.832;2023-01-10T02:13:10;101239.13;;;7.55;100.00
69667;BME280;66534;52.370;4.832;2023-01-10T02:13:43;101240.03;;;7.54;100.00
69667;BME280;66534;52.370;4.832;2023-01-10T02:14:15;101247.03;;;7.52;100.00
69667;BME280;66534;52.370;4.832;2023-01-10T02:14:47;101245.31;;;7.51;100.00
69667;BME280;66534;52.370;4.832;2023-01-10T02:15:20;101243.56;;;7.51;100.00
69667;BME280;66534;52.370;4.832;2023-01-10T02:15:51;101252.25;;;7.52;100.00
69667;BME280;66534;52.370;4.832;2023-01-10T02:16:21;101253.06;;;7.54;100.00
69667;BME280;66534;52.370;4.832;2023-01-10T02:16:52;101250.47;;;7.52;100.00
69667;BME280;66534;52.370;4.832;2023-01-10T02:17:22;101250.59;;;7.47;100.00
69667;BME280;66534;52.370;4.832;2023-01-10T02:17:53;101252.47;;;7.42;100.00
69667;BME280;66534;52.370;4.832;2023-01-10T02:18:23;101261.25;;;7.40;100.00
69667;BME280;66534;52.370;4.832;2023-01-10T02:18:54;101258.84;;;7.31;100.00
69667;BME280;66534;52.370;4.832;2023-01-10T02:20:09;101249.25;;;7.33;100.00
69667;BME280;66534;52.370;4.832;2023-01-10T02:22:16;101261.50;;;7.29;100.00
69667;BME280;66534;52.370;4.832;2023-01-10T02:23:38;101254.72;;;7.22;100.00
69667;BME280;66534;52.370;4.832;2023-01-10T02:25:31;101267.75;;;7.23;100.00
69667;BME280;66534;52.370;4.832;2023-01-10T02:26:27;101258.91;;;7.29;100.00
69667;BME280;66534;52.370;4.832;2023-01-10T02:30:59;101258.97;;;7.26;100.00
69667;BME280;66534;52.370;4.832;2023-01-10T02:33:17;101268.25;;;7.01;100.00
69667;BME280;66534;52.370;4.832;2023-01-10T02:36:36;101269.91;;;7.05;100.00
69667;BME280;66534;52.370;4.832;2023-01-10T02:37:11;101266.44;;;7.04;100.00
69667;BME280;66534;52.370;4.832;2023-01-10T02:38:22;101265.72;;;6.97;100.00
69667;BME280;66534;52.370;4.832;2023-01-10T02:40:24;101266.72;;;6.92;100.00
69667;BME280;66534;52.370;4.832;2023-01-10T02:41:15;101267.50;;;6.95;100.00
69667;BME280;66534;52.370;4.832;2023-01-10T02:41:58;101264.91;;;6.95;100.00
69667;BME280;66534;52.370;4.832;2023-01-10T02:42:38;101265.03;;;6.89;100.00
69667;BME280;66534;52.370;4.832;2023-01-10T02:43:17;101264.22;;;6.87;100.00
69667;BME280;66534;52.370;4.832;2023-01-10T02:43:53;101269.47;;;6.86;100.00
69667;BME280;66534;52.370;4.832;2023-01-10T02:45:13;101278.91;;;6.91;100.00
69667;BME280;66534;52.370;4.832;2023-01-10T02:45:54;101272.78;;;6.92;100.00
69667;BME280;66534;52.370;4.832;2023-01-10T02:46:29;101271.91;;;6.93;100.00
69667;BME280;66534;52.370;4.832;2023-01-10T02:47:02;101282.31;;;6.93;100.00
69667;BME280;66534;52.370;4.832;2023-01-10T02:47:37;101273.63;;;6.94;100.00
69667;BME280;66534;52.370;4.832;2023-01-10T02:48:09;101282.09;;;7.04;100.00
69667;BME280;66534;52.370;4.832;2023-01-10T02:48:39;101287.16;;;7.12;100.00
69667;BME280;66534;52.370;4.832;2023-01-10T02:49:10;101283.00;;;7.03;100.00
69667;BME280;66534;52.370;4.832;2023-01-10T02:49:50;101286.34;;;7.08;100.00
69667;BME280;66534;52.370;4.832;2023-01-10T02:51:03;101284.59;;;7.09;100.00
69667;BME280;66534;52.370;4.832;2023-01-10T02:51:43;101285.50;;;7.08;100.00
69667;BME280;66534;52.370;4.832;2023-01-10T02:52:31;101285.50;;;7.06;100.00
69667;BME280;66534;52.370;4.832;2023-01-10T02:53:03;101296.75;;;7.10;100.00
69667;BME280;66534;52.370;4.832;2023-01-10T02:53:40;101291.63;;;7.07;100.00
69667;BME280;66534;52.370;4.832;2023-01-10T02:54:21;101283.69;;;7.10;100.00
69667;BME280;66534;52.370;4.832;2023-01-10T02:54:58;101290.59;;;7.12;100.00
69667;BME280;66534;52.370;4.832;2023-01-10T02:56:18;101286.19;;;7.14;100.00
69667;BME280;66534;52.370;4.832;2023-01-10T02:57:58;101292.47;;;7.06;100.00
69667;BME280;66534;52.370;4.832;2023-01-10T03:01:15;101295.19;;;7.01;100.00
69667;BME280;66534;52.370;4.832;2023-01-10T03:03:45;101293.22;;;7.12;100.00
69667;BME280;66534;52.370;4.832;2023-01-10T03:06:14;101299.56;;;7.01;100.00
69667;BME280;66534;52.370;4.832;2023-01-10T03:06:56;101308.81;;;7.14;100.00
69667;BME280;66534;52.370;4.832;2023-01-10T03:10:29;101303.06;;;6.99;100.00
69667;BME280;66534;52.370;4.832;2023-01-10T03:11:07;101308.44;;;6.92;100.00
69667;BME280;66534;52.370;4.832;2023-01-10T03:11:39;101299.81;;;6.90;100.00
69667;BME280;66534;52.370;4.832;2023-01-10T03:12:20;101303.03;;;7.01;100.00
69667;BME280;66534;52.370;4.832;2023-01-10T03:13:09;101304.06;;;6.94;100.00
69667;BME280;66534;52.370;4.832;2023-01-10T03:13:50;101298.75;;;6.98;100.00
69667;BME280;66534;52.370;4.832;2023-01-10T03:14:25;101299.50;;;7.04;100.00
69667;BME280;66534;52.370;4.832;2023-01-10T03:14:58;101301.16;;;7.06;100.00
69667;BME280;66534;52.370;4.832;2023-01-10T03:15:31;101296.84;;;7.07;100.00
69667;BME280;66534;52.370;4.832;2023-01-10T03:16:06;101295.94;;;7.06;100.00
69667;BME280;66534;52.370;4.832;2023-01-10T03:16:43;101298.56;;;7.06;100.00
69667;BME280;66534;52.370;4.832;2023-01-10T03:17:19;101299.34;;;7.11;100.00
69667;BME280;66534;52.370;4.832;2023-01-10T03:17:53;101302.06;;;7.07;100.00
69667;BME280;66534;52.370;4.832;2023-01-10T03:18:32;101292.59;;;7.03;100.00
69667;BME280;66534;52.370;4.832;2023-01-10T03:19:18;101304.56;;;7.10;100.00
69667;BME280;66534;52.370;4.832;2023-01-10T03:19:52;101301.84;;;7.14;100.00
69667;BME280;66534;52.370;4.832;2023-01-10T03:20:27;101303.66;;;7.12;100.00
69667;BME280;66534;52.370;4.832;2023-01-10T03:21:02;101299.34;;;7.10;100.00
69667;BME280;66534;52.370;4.832;2023-01-10T03:21:35;101300.94;;;7.17;100.00
69667;BME280;66534;52.370;4.832;2023-01-10T03:22:10;101303.66;;;7.12;100.00
69667;BME280;66534;52.370;4.832;2023-01-10T03:22:42;101302.00;;;7.08;100.00
69667;BME280;66534;52.370;4.832;2023-01-10T03:23:13;101310.72;;;7.07;100.00
69667;BME280;66534;52.370;4.832;2023-01-10T03:23:46;101306.44;;;7.05;100.00
69667;BME280;66534;52.370;4.832;2023-01-10T03:24:22;101309.88;;;7.07;100.00
69667;BME280;66534;52.370;4.832;2023-01-10T03:24:58;101307.28;;;7.07;100.00
69667;BME280;66534;52.370;4.832;2023-01-10T03:25:33;101311.72;;;7.02;100.00
69667;BME280;66534;52.370;4.832;2023-01-10T03:26:05;101318.94;;;6.89;100.00